Inicio METAR Ruta Wind Satelite

Informe Meteorológico

Fecha: 2021/09/21 14:30:07 Local
2021.09.21 19:30 UTC


Operación:MVFR
SKLT 211900Z 25004KT 9999 BKN016 31/25 Q1007 RMK VCSH SW A2976 =

SKLT 211800Z 03004KT 9999 BKN016 31/25 Q1009 RMK A2981
SKLT 211700Z VRB02KT 9999 BKN015 33/24 Q1011 RMK A2986
SKLT 211600Z 02004KT 9999 BKN017 32/24 Q1012 RMK A2990
SKLT 211500Z 05004KT 9999 FEW015 BKN200 32/23 Q1012 RMK A2991
SKLT 211400Z 05004KT CAVOK 30/24 Q1012 RMK A2991

2021/09/21 12:58
TAF SKLT 211030Z 2112/2212 VRB02KT 9999 FEW015
FM211400 22006KT 9999 SCT015
TEMPO 2120/2124 TSRA SCT015CB TX32/2118Z TN22/2210Z